sensor_id;sensor_type;location;lat;lon;timestamp;P1;P2;P0
72918;PMS7003;61063;55.700;26.994;2022-09-09T00:03:40;0.4;0.1;0.1
72918;PMS7003;61063;55.700;26.994;2022-09-09T00:09:08;0.3;0.3;0.2
72918;PMS7003;61063;55.700;26.994;2022-09-09T00:13:55;0.5;0.3;0.3
72918;PMS7003;61063;55.700;26.994;2022-09-09T00:23:45;0.8;0.1;0.1
72918;PMS7003;61063;55.700;26.994;2022-09-09T00:28:44;0.3;0.2;0.1
72918;PMS7003;61063;55.700;26.994;2022-09-09T00:34:09;0.6;0.2;0.1
72918;PMS7003;61063;55.700;26.994;2022-09-09T00:38:34;0.8;0.2;0.1
72918;PMS7003;61063;55.700;26.994;2022-09-09T00:43:46;0.7;0;0
72918;PMS7003;61063;55.700;26.994;2022-09-09T00:49:13;0.7;0.2;0.1
72918;PMS7003;61063;55.700;26.994;2022-09-09T00:54:12;0.3;0.1;0.1
72918;PMS7003;61063;55.700;26.994;2022-09-09T00:58:57;0.7;0.1;0.1
72918;PMS7003;61063;55.700;26.994;2022-09-09T01:03:43;0.4;0.3;0.1
72918;PMS7003;61063;55.700;26.994;2022-09-09T01:14:43;0.5;0.1;0.1
72918;PMS7003;61063;55.700;26.994;2022-09-09T01:18:39;0.5;0.1;0.1
72918;PMS7003;61063;55.700;26.994;2022-09-09T01:23:45;0.7;0.1;0
72918;PMS7003;61063;55.700;26.994;2022-09-09T01:29:06;0.4;0.1;0.1
72918;PMS7003;61063;55.700;26.994;2022-09-09T01:33:53;0.9;0.4;0.2
72918;PMS7003;61063;55.700;26.994;2022-09-09T01:38:47;0.8;0.4;0.1
72918;PMS7003;61063;55.700;26.994;2022-09-09T01:43:57;0.5;0.2;0.1
72918;PMS7003;61063;55.700;26.994;2022-09-09T01:48:51;0.6;0.2;0.1
72918;PMS7003;61063;55.700;26.994;2022-09-09T01:53:41;0.7;0.2;0.1
72918;PMS7003;61063;55.700;26.994;2022-09-09T02:04:03;0.6;0.1;0.1
72918;PMS7003;61063;55.700;26.994;2022-09-09T02:08:42;0.4;0.1;0.1
72918;PMS7003;61063;55.700;26.994;2022-09-09T02:13:43;0.4;0.2;0.1
72918;PMS7003;61063;55.700;26.994;2022-09-09T02:18:40;0.7;0.3;0.3
72918;PMS7003;61063;55.700;26.994;2022-09-09T02:24:04;0.3;0.2;0.1
72918;PMS7003;61063;55.700;26.994;2022-09-09T02:29:04;1.1;0.4;0.3
72918;PMS7003;61063;55.700;26.994;2022-09-09T02:34:03;0.8;0.4;0.2
72918;PMS7003;61063;55.700;26.994;2022-09-09T02:39:02;0.5;0.4;0.3
72918;PMS7003;61063;55.700;26.994;2022-09-09T02:44:11;0.9;0.4;0.2
72918;PMS7003;61063;55.700;26.994;2022-09-09T02:48:47;0.7;0.3;0.3
72918;PMS7003;61063;55.700;26.994;2022-09-09T02:53:37;0.8;0.4;0.3
72918;PMS7003;61063;55.700;26.994;2022-09-09T02:58:45;0.9;0.6;0.5
72918;PMS7003;61063;55.700;26.994;2022-09-09T03:03:35;1;0.5;0.2
72918;PMS7003;61063;55.700;26.994;2022-09-09T03:08:25;0.6;0.3;0.3
72918;PMS7003;61063;55.700;26.994;2022-09-09T03:13:45;0.7;0.4;0.3
72918;PMS7003;61063;55.700;26.994;2022-09-09T03:19:03;1.2;0.3;0.2
72918;PMS7003;61063;55.700;26.994;2022-09-09T03:23:51;1.2;0.8;0.7
72918;PMS7003;61063;55.700;26.994;2022-09-09T03:29:04;1.5;0.9;0.6
72918;PMS7003;61063;55.700;26.994;2022-09-09T03:33:45;0.9;0.5;0.3
72918;PMS7003;61063;55.700;26.994;2022-09-09T03:38:49;1.4;0.8;0.6
72918;PMS7003;61063;55.700;26.994;2022-09-09T03:44:03;1.5;0.9;0.8
72918;PMS7003;61063;55.700;26.994;2022-09-09T03:48:45;1.7;0.6;0.4
72918;PMS7003;61063;55.700;26.994;2022-09-09T03:54:05;1.4;1.1;0.9
72918;PMS7003;61063;55.700;26.994;2022-09-09T03:58:23;1.3;1.2;1
72918;PMS7003;61063;55.700;26.994;2022-09-09T04:03:43;1.6;1.3;1
72918;PMS7003;61063;55.700;26.994;2022-09-09T04:08:51;2.1;1.5;1.3
72918;PMS7003;61063;55.700;26.994;2022-09-09T04:13:27;1.6;1;0.8
72918;PMS7003;61063;55.700;26.994;2022-09-09T04:18:55;1.6;1.1;1
72918;PMS7003;61063;55.700;26.994;2022-09-09T04:23:53;1.8;1.1;0.9
72918;PMS7003;61063;55.700;26.994;2022-09-09T04:28:45;1.2;1;0.9
72918;PMS7003;61063;55.700;26.994;2022-09-09T04:33:55;1;0.8;0.6
72918;PMS7003;61063;55.700;26.994;2022-09-09T04:39:07;1.4;0.7;0.6
72918;PMS7003;61063;55.700;26.994;2022-09-09T04:43:43;1.2;0.7;0.6
72918;PMS7003;61063;55.700;26.994;2022-09-09T04:48:35;0.6;0.4;0.3
72918;PMS7003;61063;55.700;26.994;2022-09-09T04:54:05;1.1;0.8;0.7
72918;PMS7003;61063;55.700;26.994;2022-09-09T04:58:57;0.6;0.3;0.3
72918;PMS7003;61063;55.700;26.994;2022-09-09T05:04:09;0.7;0.4;0.2
72918;PMS7003;61063;55.700;26.994;2022-09-09T05:08:47;0.5;0.5;0.3
72918;PMS7003;61063;55.700;26.994;2022-09-09T05:13:57;0.7;0.4;0.3
72918;PMS7003;61063;55.700;26.994;2022-09-09T05:19:11;0.6;0.3;0.2
72918;PMS7003;61063;55.700;26.994;2022-09-09T05:23:47;0.5;0.4;0.2
72918;PMS7003;61063;55.700;26.994;2022-09-09T05:28:47;0.5;0.2;0.1
72918;PMS7003;61063;55.700;26.994;2022-09-09T05:34:09;0.5;0.4;0.3
72918;PMS7003;61063;55.700;26.994;2022-09-09T05:38:37;0.3;0.2;0.1
72918;PMS7003;61063;55.700;26.994;2022-09-09T05:44:11;0.4;0.1;0.1
72918;PMS7003;61063;55.700;26.994;2022-09-09T05:48:48;0.3;0.1;0
72918;PMS7003;61063;55.700;26.994;2022-09-09T05:54:09;0.9;0.1;0.1
72918;PMS7003;61063;55.700;26.994;2022-09-09T05:59:09;0.6;0.2;0
72918;PMS7003;61063;55.700;26.994;2022-09-09T06:04:09;0.5;0.1;0.1
72918;PMS7003;61063;55.700;26.994;2022-09-09T06:09:08;0.3;0.1;0.1
72918;PMS7003;61063;55.700;26.994;2022-09-09T06:14:09;0.4;0.1;0
72918;PMS7003;61063;55.700;26.994;2022-09-09T06:19:09;0.3;0.1;0
72918;PMS7003;61063;55.700;26.994;2022-09-09T06:23:47;0.4;0.2;0.1
72918;PMS7003;61063;55.700;26.994;2022-09-09T06:29:09;0.5;0.1;0
72918;PMS7003;61063;55.700;26.994;2022-09-09T06:34:09;0.2;0.1;0
72918;PMS7003;61063;55.700;26.994;2022-09-09T06:38:58;0.5;0.1;0.1
72918;PMS7003;61063;55.700;26.994;2022-09-09T06:43:47;0.4;0.1;0
72918;PMS7003;61063;55.700;26.994;2022-09-09T06:48:59;0.3;0;0
72918;PMS7003;61063;55.700;26.994;2022-09-09T06:54:00;0.2;0.2;0.1
72918;PMS7003;61063;55.700;26.994;2022-09-09T06:58:47;0.3;0;0
72918;PMS7003;61063;55.700;26.994;2022-09-09T07:03:58;0.4;0;0
72918;PMS7003;61063;55.700;26.994;2022-09-09T07:09:10;0.3;0.1;0
72918;PMS7003;61063;55.700;26.994;2022-09-09T07:13:37;0.6;0.1;0.1
72918;PMS7003;61063;55.700;26.994;2022-09-09T07:18:38;0.3;0;0
72918;PMS7003;61063;55.700;26.994;2022-09-09T07:24:14;0.3;0.1;0
72918;PMS7003;61063;55.700;26.994;2022-09-09T07:29:01;0.1;0;0
72918;PMS7003;61063;55.700;26.994;2022-09-09T07:34:13;0.2;0;0
72918;PMS7003;61063;55.700;26.994;2022-09-09T07:38:49;0.6;0.1;0.1
72918;PMS7003;61063;55.700;26.994;2022-09-09T07:44:03;0;0;0
72918;PMS7003;61063;55.700;26.994;2022-09-09T07:49:11;0.5;0;0
72918;PMS7003;61063;55.700;26.994;2022-09-09T07:53:48;0.3;0;0
72918;PMS7003;61063;55.700;26.994;2022-09-09T07:58:47;0.2;0.1;0
72918;PMS7003;61063;55.700;26.994;2022-09-09T08:04:12;0.5;0.1;0.1
72918;PMS7003;61063;55.700;26.994;2022-09-09T08:08:38;0.1;0;0
72918;PMS7003;61063;55.700;26.994;2022-09-09T08:13:50;0.8;0;0
72918;PMS7003;61063;55.700;26.994;2022-09-09T08:18:38;0.3;0;0
72918;PMS7003;61063;55.700;26.994;2022-09-09T08:24:13;0.2;0;0
72918;PMS7003;61063;55.700;26.994;2022-09-09T08:29:10;0.1;0;0
72918;PMS7003;61063;55.700;26.994;2022-09-09T08:33:47;0.2;0;0
72918;PMS7003;61063;55.700;26.994;2022-09-09T08:38:47;0.2;0;0
72918;PMS7003;61063;55.700;26.994;2022-09-09T08:44:09;0.1;0;0
72918;PMS7003;61063;55.700;26.994;2022-09-09T08:49:23;0.1;0;0
72918;PMS7003;61063;55.700;26.994;2022-09-09T08:53:38;0.2;0;0
72918;PMS7003;61063;55.700;26.994;2022-09-09T08:58:43;0.4;0.1;0
72918;PMS7003;61063;55.700;26.994;2022-09-09T09:04:51;0.2;0;0
72918;PMS7003;61063;55.700;26.994;2022-09-09T09:09:02;0;0;0
72918;PMS7003;61063;55.700;26.994;2022-09-09T09:13:53;0.1;0;0
72918;PMS7003;61063;55.700;26.994;2022-09-09T09:19:01;0.1;0;0
72918;PMS7003;61063;55.700;26.994;2022-09-09T09:23:56;0.2;0;0
72918;PMS7003;61063;55.700;26.994;2022-09-09T09:28:58;0.2;0;0
72918;PMS7003;61063;55.700;26.994;2022-09-09T09:34:13;0.1;0;0
72918;PMS7003;61063;55.700;26.994;2022-09-09T09:39:09;0.1;0;0
72918;PMS7003;61063;55.700;26.994;2022-09-09T09:43:39;0;0;0
72918;PMS7003;61063;55.700;26.994;2022-09-09T09:49:11;0.1;0;0
72918;PMS7003;61063;55.700;26.994;2022-09-09T09:53:36;0.3;0;0
72918;PMS7003;61063;55.700;26.994;2022-09-09T09:59:41;0.4;0.1;0
72918;PMS7003;61063;55.700;26.994;2022-09-09T10:04:25;0;0;0
72918;PMS7003;61063;55.700;26.994;2022-09-09T10:08:44;0;0;0
72918;PMS7003;61063;55.700;26.994;2022-09-09T10:19:46;0.3;0;0
72918;PMS7003;61063;55.700;26.994;2022-09-09T10:28:51;0;0;0
72918;PMS7003;61063;55.700;26.994;2022-09-09T10:33:33;0.2;0.1;0.1
72918;PMS7003;61063;55.700;26.994;2022-09-09T10:38:39;0.2;0;0
72918;PMS7003;61063;55.700;26.994;2022-09-09T10:43:55;0.3;0;0
72918;PMS7003;61063;55.700;26.994;2022-09-09T10:48:55;0.2;0;0
72918;PMS7003;61063;55.700;26.994;2022-09-09T10:54:13;0;0;0
72918;PMS7003;61063;55.700;26.994;2022-09-09T10:58:59;0.2;0;0
72918;PMS7003;61063;55.700;26.994;2022-09-09T11:04:29;0;0;0
72918;PMS7003;61063;55.700;26.994;2022-09-09T11:09:01;0;0;0
72918;PMS7003;61063;55.700;26.994;2022-09-09T11:14:02;0.5;0;0
72918;PMS7003;61063;55.700;26.994;2022-09-09T11:19:40;0.2;0;0
72918;PMS7003;61063;55.700;26.994;2022-09-09T11:24:42;0.8;0;0
72918;PMS7003;61063;55.700;26.994;2022-09-09T11:28:40;0.4;0;0
72918;PMS7003;61063;55.700;26.994;2022-09-09T11:33:49;0.1;0;0
72918;PMS7003;61063;55.700;26.994;2022-09-09T11:39:02;0.2;0;0
72918;PMS7003;61063;55.700;26.994;2022-09-09T11:43:49;0.1;0;0
72918;PMS7003;61063;55.700;26.994;2022-09-09T11:49:00;0.3;0;0
72918;PMS7003;61063;55.700;26.994;2022-09-09T11:53:59;0.6;0;0
72918;PMS7003;61063;55.700;26.994;2022-09-09T11:58:56;0.3;0;0
72918;PMS7003;61063;55.700;26.994;2022-09-09T12:04:14;0.4;0;0
72918;PMS7003;61063;55.700;26.994;2022-09-09T12:09:17;0;0;0
72918;PMS7003;61063;55.700;26.994;2022-09-09T12:14:18;0.4;0;0
72918;PMS7003;61063;55.700;26.994;2022-09-09T12:18:37;0;0;0
72918;PMS7003;61063;55.700;26.994;2022-09-09T12:23:40;0;0;0
72918;PMS7003;61063;55.700;26.994;2022-09-09T12:29:36;0.1;0;0
72918;PMS7003;61063;55.700;26.994;2022-09-09T12:34:32;0;0;0
72918;PMS7003;61063;55.700;26.994;2022-09-09T12:38:43;0;0;0
72918;PMS7003;61063;55.700;26.994;2022-09-09T12:44:10;0;0;0
72918;PMS7003;61063;55.700;26.994;2022-09-09T12:48:57;0.2;0;0
72918;PMS7003;61063;55.700;26.994;2022-09-09T12:53:45;0.3;0;0
72918;PMS7003;61063;55.700;26.994;2022-09-09T12:58:46;0.3;0;0
72918;PMS7003;61063;55.700;26.994;2022-09-09T13:03:45;0.1;0;0
72918;PMS7003;61063;55.700;26.994;2022-09-09T13:09:09;0.1;0;0
72918;PMS7003;61063;55.700;26.994;2022-09-09T13:13:27;0.4;0.1;0.1
72918;PMS7003;61063;55.700;26.994;2022-09-09T13:18:48;0.3;0.1;0
72918;PMS7003;61063;55.700;26.994;2022-09-09T13:23:50;0.2;0;0
72918;PMS7003;61063;55.700;26.994;2022-09-09T13:29:16;0.4;0;0
72918;PMS7003;61063;55.700;26.994;2022-09-09T13:34:26;0.1;0;0
72918;PMS7003;61063;55.700;26.994;2022-09-09T13:38:57;0.6;0;0
72918;PMS7003;61063;55.700;26.994;2022-09-09T13:44:17;0.4;0;0
72918;PMS7003;61063;55.700;26.994;2022-09-09T13:54:09;0.3;0;0
72918;PMS7003;61063;55.700;26.994;2022-09-09T13:58:49;0.3;0;0
72918;PMS7003;61063;55.700;26.994;2022-09-09T14:04:12;0.3;0.1;0
72918;PMS7003;61063;55.700;26.994;2022-09-09T14:09:12;0.9;0.3;0.3
72918;PMS7003;61063;55.700;26.994;2022-09-09T14:14:12;0.9;0.2;0.2
72918;PMS7003;61063;55.700;26.994;2022-09-09T14:18:52;0.2;0;0
72918;PMS7003;61063;55.700;26.994;2022-09-09T14:24:02;1.4;0.8;0.6
72918;PMS7003;61063;55.700;26.994;2022-09-09T14:28:56;1;0.7;0.5
72918;PMS7003;61063;55.700;26.994;2022-09-09T14:34:10;0.7;0.5;0.5
72918;PMS7003;61063;55.700;26.994;2022-09-09T14:39:00;2.2;1.8;1.4
72918;PMS7003;61063;55.700;26.994;2022-09-09T14:44:10;3.1;2.3;1.9
72918;PMS7003;61063;55.700;26.994;2022-09-09T14:48:38;1.6;0.7;0.5
72918;PMS7003;61063;55.700;26.994;2022-09-09T14:53:38;0.1;0;0
72918;PMS7003;61063;55.700;26.994;2022-09-09T14:59:10;0.1;0.1;0
72918;PMS7003;61063;55.700;26.994;2022-09-09T15:03:50;0.5;0;0
72918;PMS7003;61063;55.700;26.994;2022-09-09T15:09:08;0.1;0;0
72918;PMS7003;61063;55.700;26.994;2022-09-09T15:13:44;0.3;0;0
72918;PMS7003;61063;55.700;26.994;2022-09-09T15:19:00;0.3;0;0
72918;PMS7003;61063;55.700;26.994;2022-09-09T15:24:10;0.2;0;0
72918;PMS7003;61063;55.700;26.994;2022-09-09T15:28:48;0.3;0;0
72918;PMS7003;61063;55.700;26.994;2022-09-09T15:33:49;0.2;0.1;0
72918;PMS7003;61063;55.700;26.994;2022-09-09T15:39:13;0.1;0;0
72918;PMS7003;61063;55.700;26.994;2022-09-09T15:43:46;0.2;0;0
72918;PMS7003;61063;55.700;26.994;2022-09-09T15:48:52;0.3;0.1;0
72918;PMS7003;61063;55.700;26.994;2022-09-09T15:53:38;0.2;0;0
72918;PMS7003;61063;55.700;26.994;2022-09-09T15:59:14;0.2;0.1;0
72918;PMS7003;61063;55.700;26.994;2022-09-09T16:04:14;0.1;0.1;0
72918;PMS7003;61063;55.700;26.994;2022-09-09T16:08:46;0.3;0;0
72918;PMS7003;61063;55.700;26.994;2022-09-09T16:14:12;0.2;0;0
72918;PMS7003;61063;55.700;26.994;2022-09-09T16:19:14;0.2;0;0
72918;PMS7003;61063;55.700;26.994;2022-09-09T16:24:13;0.3;0;0
72918;PMS7003;61063;55.700;26.994;2022-09-09T16:29:12;0.1;0;0
72918;PMS7003;61063;55.700;26.994;2022-09-09T16:34:10;0.1;0;0
72918;PMS7003;61063;55.700;26.994;2022-09-09T16:39:13;0;0;0
72918;PMS7003;61063;55.700;26.994;2022-09-09T16:44:03;0;0;0
72918;PMS7003;61063;55.700;26.994;2022-09-09T16:48:36;1.1;0.5;0.4
72918;PMS7003;61063;55.700;26.994;2022-09-09T16:54:12;0.4;0.2;0.1
72918;PMS7003;61063;55.700;26.994;2022-09-09T16:58:57;0.2;0.1;0.1
72918;PMS7003;61063;55.700;26.994;2022-09-09T17:03:38;0.2;0.1;0.1
72918;PMS7003;61063;55.700;26.994;2022-09-09T17:09:01;0.3;0.1;0
72918;PMS7003;61063;55.700;26.994;2022-09-09T17:14:15;0.3;0.1;0
72918;PMS7003;61063;55.700;26.994;2022-09-09T17:18:38;0.2;0.1;0.1
72918;PMS7003;61063;55.700;26.994;2022-09-09T17:24:14;0.4;0.1;0
72918;PMS7003;61063;55.700;26.994;2022-09-09T17:29:12;0.5;0.4;0.3
72918;PMS7003;61063;55.700;26.994;2022-09-09T17:34:12;0.9;0.7;0.5
72918;PMS7003;61063;55.700;26.994;2022-09-09T17:39:12;2;0.8;0.4
72918;PMS7003;61063;55.700;26.994;2022-09-09T17:43:36;1.3;1;0.9
72918;PMS7003;61063;55.700;26.994;2022-09-09T17:49:15;1.6;1.1;0.9
72918;PMS7003;61063;55.700;26.994;2022-09-09T17:54:01;2.4;1.1;0.8
72918;PMS7003;61063;55.700;26.994;2022-09-09T17:58:48;2.2;1.4;1.1
72918;PMS7003;61063;55.700;26.994;2022-09-09T18:03:38;1.4;0.6;0.5
72918;PMS7003;61063;55.700;26.994;2022-09-09T18:08:38;0.5;0.3;0.2
72918;PMS7003;61063;55.700;26.994;2022-09-09T18:13:47;0.6;0.4;0.1
72918;PMS7003;61063;55.700;26.994;2022-09-09T18:18:38;0.9;0.4;0.2
72918;PMS7003;61063;55.700;26.994;2022-09-09T18:24:04;0.8;0.3;0.2
72918;PMS7003;61063;55.700;26.994;2022-09-09T18:29:15;0.5;0.3;0.2
72918;PMS7003;61063;55.700;26.994;2022-09-09T18:33:58;0.3;0.3;0.1
72918;PMS7003;61063;55.700;26.994;2022-09-09T18:38:55;1.1;0.5;0.3
72918;PMS7003;61063;55.700;26.994;2022-09-09T18:43:46;0.8;0.6;0.5
72918;PMS7003;61063;55.700;26.994;2022-09-09T18:48:56;1.3;0.8;0.6
72918;PMS7003;61063;55.700;26.994;2022-09-09T18:54:13;0.8;0.6;0.6
72918;PMS7003;61063;55.700;26.994;2022-09-09T18:58:36;1.9;0.8;0.6
72918;PMS7003;61063;55.700;26.994;2022-09-09T19:03:58;1.2;0.8;0.6
72918;PMS7003;61063;55.700;26.994;2022-09-09T19:08:36;1.9;0.9;0.8
72918;PMS7003;61063;55.700;26.994;2022-09-09T19:14:03;1.4;0.7;0.5
72918;PMS7003;61063;55.700;26.994;2022-09-09T19:19:11;1.4;1;0.8
72918;PMS7003;61063;55.700;26.994;2022-09-09T19:24:01;2.1;1.3;1
72918;PMS7003;61063;55.700;26.994;2022-09-09T19:28:57;2.5;1.6;1.3
72918;PMS7003;61063;55.700;26.994;2022-09-09T19:33:56;2.6;1.6;1.4
72918;PMS7003;61063;55.700;26.994;2022-09-09T19:38:58;2;1.2;0.9
72918;PMS7003;61063;55.700;26.994;2022-09-09T19:44:11;1.3;1.1;0.9
72918;PMS7003;61063;55.700;26.994;2022-09-09T19:49:08;2.4;2;1.7
72918;PMS7003;61063;55.700;26.994;2022-09-09T19:53:48;3;1.7;1.4
72918;PMS7003;61063;55.700;26.994;2022-09-09T19:58:50;7.4;5.2;3.9
72918;PMS7003;61063;55.700;26.994;2022-09-09T20:04:00;4.6;3.1;2.3
72918;PMS7003;61063;55.700;26.994;2022-09-09T20:09:12;3.8;3.1;2.5
72918;PMS7003;61063;55.700;26.994;2022-09-09T20:13:44;3.1;2.2;1.7
72918;PMS7003;61063;55.700;26.994;2022-09-09T20:19:12;2.6;2;1.6
72918;PMS7003;61063;55.700;26.994;2022-09-09T20:24:03;3;2.3;1.7
72918;PMS7003;61063;55.700;26.994;2022-09-09T20:28:47;2.6;2;1.6
72918;PMS7003;61063;55.700;26.994;2022-09-09T20:33:52;2.1;1.7;1.4
72918;PMS7003;61063;55.700;26.994;2022-09-09T20:39:14;1.6;1.3;1.1
72918;PMS7003;61063;55.700;26.994;2022-09-09T20:43:44;2.7;1.8;1.5
72918;PMS7003;61063;55.700;26.994;2022-09-09T20:48:36;1.9;1.3;1
72918;PMS7003;61063;55.700;26.994;2022-09-09T20:53:53;1.1;0.7;0.5
72918;PMS7003;61063;55.700;26.994;2022-09-09T20:59:15;1.2;0.6;0.6
72918;PMS7003;61063;55.700;26.994;2022-09-09T21:03:50;1;0.7;0.5
72918;PMS7003;61063;55.700;26.994;2022-09-09T21:09:08;2;0.9;0.5
72918;PMS7003;61063;55.700;26.994;2022-09-09T21:13:44;1.5;1;0.9
72918;PMS7003;61063;55.700;26.994;2022-09-09T21:18:54;1.5;1.2;1
72918;PMS7003;61063;55.700;26.994;2022-09-09T21:24:12;2.1;1.1;0.8
72918;PMS7003;61063;55.700;26.994;2022-09-09T21:29:00;2.2;1.3;1.1
72918;PMS7003;61063;55.700;26.994;2022-09-09T21:34:12;2;1.1;0.9
72918;PMS7003;61063;55.700;26.994;2022-09-09T21:39:12;2.8;1.5;1.1
72918;PMS7003;61063;55.700;26.994;2022-09-09T21:44:02;2.1;1.3;1.1
72918;PMS7003;61063;55.700;26.994;2022-09-09T21:48:52;3.5;2.3;1.9
72918;PMS7003;61063;55.700;26.994;2022-09-09T21:53:58;2.3;1.6;1.4
72918;PMS7003;61063;55.700;26.994;2022-09-09T21:58:56;4;3.3;2.6
72918;PMS7003;61063;55.700;26.994;2022-09-09T22:03:56;4.1;2.8;2.3
72918;PMS7003;61063;55.700;26.994;2022-09-09T22:08:48;12.6;10.5;7.7
72918;PMS7003;61063;55.700;26.994;2022-09-09T22:14:02;23.4;18.9;13.7
72918;PMS7003;61063;55.700;26.994;2022-09-09T22:19:12;9.1;7.2;5.9
72918;PMS7003;61063;55.700;26.994;2022-09-09T22:24:12;18.1;15.6;12.3
72918;PMS7003;61063;55.700;26.994;2022-09-09T22:28:46;10.1;8.8;6.9
72918;PMS7003;61063;55.700;26.994;2022-09-09T22:34:04;12.7;10.9;9
72918;PMS7003;61063;55.700;26.994;2022-09-09T22:39:00;12.2;10.7;8.6
72918;PMS7003;61063;55.700;26.994;2022-09-09T22:44:10;8.2;7;5.6
72918;PMS7003;61063;55.700;26.994;2022-09-09T22:48:46;7.6;5.4;4.5
72918;PMS7003;61063;55.700;26.994;2022-09-09T22:53:44;5;3.9;3.3
72918;PMS7003;61063;55.700;26.994;2022-09-09T22:59:10;2.2;1.4;1
72918;PMS7003;61063;55.700;26.994;2022-09-09T23:04:10;2.5;1.4;1
72918;PMS7003;61063;55.700;26.994;2022-09-09T23:08:48;2.4;1.3;0.8
72918;PMS7003;61063;55.700;26.994;2022-09-09T23:14:10;2.5;1.4;1
72918;PMS7003;61063;55.700;26.994;2022-09-09T23:18:28;2.7;1.6;1.3
72918;PMS7003;61063;55.700;26.994;2022-09-09T23:23:52;5.2;3.2;2.4
72918;PMS7003;61063;55.700;26.994;2022-09-09T23:28:52;9.5;7.2;5.4
72918;PMS7003;61063;55.700;26.994;2022-09-09T23:34:02;12.7;11;8.8
72918;PMS7003;61063;55.700;26.994;2022-09-09T23:39:10;16.7;14;11
72918;PMS7003;61063;55.700;26.994;2022-09-09T23:43:56;25.9;21.5;15.9
72918;PMS7003;61063;55.700;26.994;2022-09-09T23:49:00;19.1;16.2;12.5
72918;PMS7003;61063;55.700;26.994;2022-09-09T23:54:12;13.2;11.9;9.5
72918;PMS7003;61063;55.700;26.994;2022-09-09T23:59:12;15.3;13.1;10.1
